Terminal Aerodrome Forecast
Issued by NWS San Angelo, TX

Home | Current Version | Previous Version | Text Only | Print | Product List | Glossary On
Versions: 1 2 3 4 5 6 7 8 9 10 11 12 13 14 15 16 17 18 19 20 21 22
000
FTUS44 KSJT 012300
TAFABI
TAF
KABI 012336Z 0200/0224 02008KT 2SM -FZDZ BR OVC002
     FM020200 02008KT 1SM -FZDZ BR OVC002
     FM021500 36007KT 2SM BR OVC002
     FM021800 01006KT 5SM BR OVC007=

USA.gov is the U.S. government's official web portal to all federal, state and local government web resources and services.